sensor_id;sensor_type;location;lat;lon;timestamp;P1;durP1;ratioP1;P2;durP2;ratioP2
1140;SDS011;559;48.628;8.924;2023-02-13T00:01:25;110.43;;;102.22;;
1140;SDS011;559;48.628;8.924;2023-02-13T00:03:52;113.35;;;104.55;;
1140;SDS011;559;48.628;8.924;2023-02-13T00:06:18;111.82;;;103.18;;
1140;SDS011;559;48.628;8.924;2023-02-13T00:08:45;114.97;;;105.47;;
1140;SDS011;559;48.628;8.924;2023-02-13T00:11:13;114.50;;;106.97;;
1140;SDS011;559;48.628;8.924;2023-02-13T00:13:39;114.32;;;105.35;;
1140;SDS011;559;48.628;8.924;2023-02-13T00:16:06;116.15;;;106.93;;
1140;SDS011;559;48.628;8.924;2023-02-13T00:18:33;114.68;;;104.28;;
1140;SDS011;559;48.628;8.924;2023-02-13T00:21:02;110.97;;;103.57;;
1140;SDS011;559;48.628;8.924;2023-02-13T00:23:31;114.15;;;107.00;;
1140;SDS011;559;48.628;8.924;2023-02-13T00:25:59;112.88;;;105.78;;
1140;SDS011;559;48.628;8.924;2023-02-13T00:28:27;107.60;;;100.82;;
1140;SDS011;559;48.628;8.924;2023-02-13T00:31:00;104.13;;;96.55;;
1140;SDS011;559;48.628;8.924;2023-02-13T00:33:27;105.25;;;98.18;;
1140;SDS011;559;48.628;8.924;2023-02-13T00:36:00;106.88;;;99.90;;
1140;SDS011;559;48.628;8.924;2023-02-13T00:38:28;109.63;;;102.28;;
1140;SDS011;559;48.628;8.924;2023-02-13T00:40:54;106.53;;;99.03;;
1140;SDS011;559;48.628;8.924;2023-02-13T00:43:21;108.95;;;100.18;;
1140;SDS011;559;48.628;8.924;2023-02-13T00:45:49;112.50;;;100.53;;
1140;SDS011;559;48.628;8.924;2023-02-13T00:48:15;117.25;;;106.28;;
1140;SDS011;559;48.628;8.924;2023-02-13T00:50:42;119.30;;;107.50;;
1140;SDS011;559;48.628;8.924;2023-02-13T00:53:10;118.35;;;107.03;;
1140;SDS011;559;48.628;8.924;2023-02-13T00:55:36;115.85;;;108.05;;
1140;SDS011;559;48.628;8.924;2023-02-13T00:58:03;118.75;;;107.38;;
1140;SDS011;559;48.628;8.924;2023-02-13T01:00:29;116.68;;;107.50;;
1140;SDS011;559;48.628;8.924;2023-02-13T01:03:01;112.47;;;102.10;;
1140;SDS011;559;48.628;8.924;2023-02-13T01:05:27;113.65;;;104.85;;
1140;SDS011;559;48.628;8.924;2023-02-13T01:07:54;112.50;;;104.45;;
1140;SDS011;559;48.628;8.924;2023-02-13T01:10:21;106.05;;;98.68;;
1140;SDS011;559;48.628;8.924;2023-02-13T01:12:47;110.60;;;103.03;;
1140;SDS011;559;48.628;8.924;2023-02-13T01:15:14;109.15;;;102.32;;
1140;SDS011;559;48.628;8.924;2023-02-13T01:17:40;110.57;;;103.40;;
1140;SDS011;559;48.628;8.924;2023-02-13T01:20:09;105.32;;;98.50;;
1140;SDS011;559;48.628;8.924;2023-02-13T01:22:36;106.60;;;99.28;;
1140;SDS011;559;48.628;8.924;2023-02-13T01:25:04;104.10;;;97.10;;
1140;SDS011;559;48.628;8.924;2023-02-13T01:27:31;102.13;;;94.93;;
1140;SDS011;559;48.628;8.924;2023-02-13T01:29:58;111.57;;;104.57;;
1140;SDS011;559;48.628;8.924;2023-02-13T01:32:25;108.18;;;101.05;;
1140;SDS011;559;48.628;8.924;2023-02-13T01:34:51;108.22;;;101.43;;
1140;SDS011;559;48.628;8.924;2023-02-13T01:37:19;106.38;;;99.20;;
1140;SDS011;559;48.628;8.924;2023-02-13T01:39:45;101.50;;;94.97;;
1140;SDS011;559;48.628;8.924;2023-02-13T01:44:47;108.05;;;100.97;;
1140;SDS011;559;48.628;8.924;2023-02-13T01:47:17;103.90;;;96.60;;
1140;SDS011;559;48.628;8.924;2023-02-13T01:49:48;117.60;;;105.60;;
1140;SDS011;559;48.628;8.924;2023-02-13T01:52:15;109.15;;;99.75;;
1140;SDS011;559;48.628;8.924;2023-02-13T01:54:44;108.80;;;100.28;;
1140;SDS011;559;48.628;8.924;2023-02-13T01:57:11;114.88;;;103.10;;
1140;SDS011;559;48.628;8.924;2023-02-13T01:59:40;106.75;;;98.38;;
1140;SDS011;559;48.628;8.924;2023-02-13T02:02:11;112.13;;;103.70;;
1140;SDS011;559;48.628;8.924;2023-02-13T02:04:38;110.55;;;101.55;;
1140;SDS011;559;48.628;8.924;2023-02-13T02:07:07;109.13;;;100.90;;
1140;SDS011;559;48.628;8.924;2023-02-13T02:09:37;109.72;;;101.80;;
1140;SDS011;559;48.628;8.924;2023-02-13T02:12:09;111.65;;;103.35;;
1140;SDS011;559;48.628;8.924;2023-02-13T02:14:39;109.28;;;102.07;;
1140;SDS011;559;48.628;8.924;2023-02-13T02:17:06;105.70;;;98.65;;
1140;SDS011;559;48.628;8.924;2023-02-13T02:19:34;102.60;;;95.60;;
1140;SDS011;559;48.628;8.924;2023-02-13T02:22:19;102.57;;;94.90;;
1140;SDS011;559;48.628;8.924;2023-02-13T02:25:03;102.53;;;95.78;;
1140;SDS011;559;48.628;8.924;2023-02-13T02:27:48;106.38;;;99.35;;
1140;SDS011;559;48.628;8.924;2023-02-13T02:30:37;111.32;;;103.03;;
1140;SDS011;559;48.628;8.924;2023-02-13T02:33:15;137.60;;;97.53;;
1140;SDS011;559;48.628;8.924;2023-02-13T02:35:49;115.07;;;99.10;;
1140;SDS011;559;48.628;8.924;2023-02-13T02:38:31;111.80;;;99.90;;
1140;SDS011;559;48.628;8.924;2023-02-13T02:41:06;112.85;;;100.45;;
1140;SDS011;559;48.628;8.924;2023-02-13T02:43:52;116.70;;;105.05;;
1140;SDS011;559;48.628;8.924;2023-02-13T02:46:22;110.15;;;98.90;;
1140;SDS011;559;48.628;8.924;2023-02-13T02:48:54;104.90;;;96.15;;
1140;SDS011;559;48.628;8.924;2023-02-13T02:51:40;104.15;;;96.25;;
1140;SDS011;559;48.628;8.924;2023-02-13T02:54:12;102.47;;;95.13;;
1140;SDS011;559;48.628;8.924;2023-02-13T02:57:06;99.13;;;92.15;;
1140;SDS011;559;48.628;8.924;2023-02-13T02:59:35;116.10;;;104.70;;
1140;SDS011;559;48.628;8.924;2023-02-13T03:02:20;104.43;;;95.75;;
1140;SDS011;559;48.628;8.924;2023-02-13T03:05:07;107.25;;;98.00;;
1140;SDS011;559;48.628;8.924;2023-02-13T03:08:00;110.22;;;101.28;;
1140;SDS011;559;48.628;8.924;2023-02-13T03:10:28;107.30;;;98.82;;
1140;SDS011;559;48.628;8.924;2023-02-13T03:13:15;104.65;;;96.32;;
1140;SDS011;559;48.628;8.924;2023-02-13T03:15:55;111.80;;;102.07;;
1140;SDS011;559;48.628;8.924;2023-02-13T03:18:42;104.22;;;95.43;;
1140;SDS011;559;48.628;8.924;2023-02-13T03:21:31;107.30;;;99.30;;
1140;SDS011;559;48.628;8.924;2023-02-13T03:24:21;105.18;;;95.82;;
1140;SDS011;559;48.628;8.924;2023-02-13T03:26:52;107.63;;;97.57;;
1140;SDS011;559;48.628;8.924;2023-02-13T03:29:27;111.20;;;100.35;;
1140;SDS011;559;48.628;8.924;2023-02-13T03:32:20;119.32;;;99.65;;
1140;SDS011;559;48.628;8.924;2023-02-13T03:34:53;130.40;;;102.63;;
1140;SDS011;559;48.628;8.924;2023-02-13T03:37:46;133.90;;;97.68;;
1140;SDS011;559;48.628;8.924;2023-02-13T03:40:22;108.80;;;97.60;;
1140;SDS011;559;48.628;8.924;2023-02-13T03:42:54;108.78;;;97.95;;
1140;SDS011;559;48.628;8.924;2023-02-13T03:45:24;110.75;;;98.63;;
1140;SDS011;559;48.628;8.924;2023-02-13T03:48:10;103.95;;;94.80;;
1140;SDS011;559;48.628;8.924;2023-02-13T03:51:13;105.85;;;96.28;;
1140;SDS011;559;48.628;8.924;2023-02-13T03:53:43;102.60;;;94.20;;
1140;SDS011;559;48.628;8.924;2023-02-13T03:56:11;105.78;;;95.93;;
1140;SDS011;559;48.628;8.924;2023-02-13T03:58:55;113.30;;;99.97;;
1140;SDS011;559;48.628;8.924;2023-02-13T04:01:43;105.95;;;97.10;;
1140;SDS011;559;48.628;8.924;2023-02-13T04:04:15;101.88;;;93.20;;
1140;SDS011;559;48.628;8.924;2023-02-13T04:06:47;91.80;;;84.40;;
1140;SDS011;559;48.628;8.924;2023-02-13T04:09:17;103.22;;;93.20;;
1140;SDS011;559;48.628;8.924;2023-02-13T04:11:46;92.22;;;83.80;;
1140;SDS011;559;48.628;8.924;2023-02-13T04:14:18;97.13;;;88.90;;
1140;SDS011;559;48.628;8.924;2023-02-13T04:16:47;94.35;;;84.97;;
1140;SDS011;559;48.628;8.924;2023-02-13T04:19:15;98.82;;;90.00;;
1140;SDS011;559;48.628;8.924;2023-02-13T04:21:42;101.22;;;91.07;;
1140;SDS011;559;48.628;8.924;2023-02-13T04:24:08;99.25;;;89.88;;
1140;SDS011;559;48.628;8.924;2023-02-13T04:26:38;108.20;;;94.43;;
1140;SDS011;559;48.628;8.924;2023-02-13T04:29:05;107.82;;;96.63;;
1140;SDS011;559;48.628;8.924;2023-02-13T04:31:32;107.80;;;97.38;;
1140;SDS011;559;48.628;8.924;2023-02-13T04:33:59;101.70;;;93.57;;
1140;SDS011;559;48.628;8.924;2023-02-13T04:36:26;103.43;;;94.68;;
1140;SDS011;559;48.628;8.924;2023-02-13T04:38:52;107.78;;;99.05;;
1140;SDS011;559;48.628;8.924;2023-02-13T04:41:19;102.15;;;93.90;;
1140;SDS011;559;48.628;8.924;2023-02-13T04:43:46;103.20;;;94.88;;
1140;SDS011;559;48.628;8.924;2023-02-13T04:46:13;106.60;;;97.75;;
1140;SDS011;559;48.628;8.924;2023-02-13T04:48:39;101.50;;;93.72;;
1140;SDS011;559;48.628;8.924;2023-02-13T04:51:06;104.72;;;95.15;;
1140;SDS011;559;48.628;8.924;2023-02-13T04:53:32;104.75;;;93.50;;
1140;SDS011;559;48.628;8.924;2023-02-13T04:55:59;106.82;;;96.05;;
1140;SDS011;559;48.628;8.924;2023-02-13T04:58:25;104.47;;;94.22;;
1140;SDS011;559;48.628;8.924;2023-02-13T05:00:53;105.82;;;94.35;;
1140;SDS011;559;48.628;8.924;2023-02-13T05:03:20;131.40;;;118.85;;
1140;SDS011;559;48.628;8.924;2023-02-13T05:05:46;106.60;;;95.70;;
1140;SDS011;559;48.628;8.924;2023-02-13T05:08:13;103.07;;;93.05;;
1140;SDS011;559;48.628;8.924;2023-02-13T05:10:40;101.45;;;91.68;;
1140;SDS011;559;48.628;8.924;2023-02-13T05:13:06;102.68;;;92.90;;
1140;SDS011;559;48.628;8.924;2023-02-13T05:15:33;115.50;;;106.53;;
1140;SDS011;559;48.628;8.924;2023-02-13T05:18:01;114.13;;;105.60;;
1140;SDS011;559;48.628;8.924;2023-02-13T05:20:27;103.88;;;95.65;;
1140;SDS011;559;48.628;8.924;2023-02-13T05:22:54;104.45;;;96.45;;
1140;SDS011;559;48.628;8.924;2023-02-13T05:25:38;113.93;;;104.68;;
1140;SDS011;559;48.628;8.924;2023-02-13T05:28:06;115.47;;;106.18;;
1140;SDS011;559;48.628;8.924;2023-02-13T05:30:53;115.28;;;106.75;;
1140;SDS011;559;48.628;8.924;2023-02-13T05:33:20;112.40;;;104.47;;
1140;SDS011;559;48.628;8.924;2023-02-13T05:35:46;113.00;;;105.35;;
1140;SDS011;559;48.628;8.924;2023-02-13T05:38:13;111.70;;;103.65;;
1140;SDS011;559;48.628;8.924;2023-02-13T05:40:39;114.10;;;106.15;;
1140;SDS011;559;48.628;8.924;2023-02-13T05:43:06;112.60;;;104.82;;
1140;SDS011;559;48.628;8.924;2023-02-13T05:45:32;113.43;;;105.82;;
1140;SDS011;559;48.628;8.924;2023-02-13T05:47:59;118.32;;;108.25;;
1140;SDS011;559;48.628;8.924;2023-02-13T05:50:27;123.53;;;111.32;;
1140;SDS011;559;48.628;8.924;2023-02-13T05:52:53;127.57;;;115.40;;
1140;SDS011;559;48.628;8.924;2023-02-13T05:55:20;128.88;;;116.13;;
1140;SDS011;559;48.628;8.924;2023-02-13T05:57:46;130.45;;;117.13;;
1140;SDS011;559;48.628;8.924;2023-02-13T06:00:13;131.05;;;119.55;;
1140;SDS011;559;48.628;8.924;2023-02-13T06:02:41;137.18;;;125.93;;
1140;SDS011;559;48.628;8.924;2023-02-13T06:05:07;126.72;;;118.15;;
1140;SDS011;559;48.628;8.924;2023-02-13T06:07:35;115.80;;;107.20;;
1140;SDS011;559;48.628;8.924;2023-02-13T06:10:02;122.85;;;114.90;;
1140;SDS011;559;48.628;8.924;2023-02-13T06:12:28;125.25;;;116.95;;
1140;SDS011;559;48.628;8.924;2023-02-13T06:14:55;118.97;;;110.68;;
1140;SDS011;559;48.628;8.924;2023-02-13T06:17:21;111.38;;;103.22;;
1140;SDS011;559;48.628;8.924;2023-02-13T06:19:47;111.13;;;103.30;;
1140;SDS011;559;48.628;8.924;2023-02-13T06:22:14;123.13;;;114.63;;
1140;SDS011;559;48.628;8.924;2023-02-13T06:24:42;119.65;;;111.30;;
1140;SDS011;559;48.628;8.924;2023-02-13T06:27:08;119.38;;;111.72;;
1140;SDS011;559;48.628;8.924;2023-02-13T06:29:35;111.35;;;103.75;;
1140;SDS011;559;48.628;8.924;2023-02-13T06:32:01;116.47;;;108.68;;
1140;SDS011;559;48.628;8.924;2023-02-13T06:34:28;120.82;;;113.38;;
1140;SDS011;559;48.628;8.924;2023-02-13T06:36:54;107.25;;;100.15;;
1140;SDS011;559;48.628;8.924;2023-02-13T06:39:21;113.85;;;106.05;;
1140;SDS011;559;48.628;8.924;2023-02-13T06:41:48;108.07;;;101.00;;
1140;SDS011;559;48.628;8.924;2023-02-13T06:44:15;106.40;;;98.93;;
1140;SDS011;559;48.628;8.924;2023-02-13T06:46:41;103.32;;;96.32;;
1140;SDS011;559;48.628;8.924;2023-02-13T06:49:08;106.43;;;99.35;;
1140;SDS011;559;48.628;8.924;2023-02-13T06:51:35;98.55;;;91.70;;
1140;SDS011;559;48.628;8.924;2023-02-13T06:54:01;96.47;;;89.75;;
1140;SDS011;559;48.628;8.924;2023-02-13T06:56:27;95.13;;;88.90;;
1140;SDS011;559;48.628;8.924;2023-02-13T06:58:55;104.35;;;97.72;;
1140;SDS011;559;48.628;8.924;2023-02-13T07:01:22;99.07;;;92.50;;
1140;SDS011;559;48.628;8.924;2023-02-13T07:03:48;97.45;;;90.35;;
1140;SDS011;559;48.628;8.924;2023-02-13T07:06:18;100.75;;;94.22;;
1140;SDS011;559;48.628;8.924;2023-02-13T07:08:44;98.15;;;91.00;;
1140;SDS011;559;48.628;8.924;2023-02-13T07:11:15;103.60;;;96.13;;
1140;SDS011;559;48.628;8.924;2023-02-13T07:13:42;105.00;;;97.70;;
1140;SDS011;559;48.628;8.924;2023-02-13T07:16:10;100.55;;;91.45;;
1140;SDS011;559;48.628;8.924;2023-02-13T07:18:37;100.32;;;92.57;;
1140;SDS011;559;48.628;8.924;2023-02-13T07:21:03;96.85;;;90.07;;
1140;SDS011;559;48.628;8.924;2023-02-13T07:23:30;101.50;;;94.30;;
1140;SDS011;559;48.628;8.924;2023-02-13T07:25:57;101.75;;;93.75;;
1140;SDS011;559;48.628;8.924;2023-02-13T07:28:24;104.10;;;95.75;;
1140;SDS011;559;48.628;8.924;2023-02-13T07:30:51;97.50;;;90.28;;
1140;SDS011;559;48.628;8.924;2023-02-13T07:33:18;99.45;;;91.70;;
1140;SDS011;559;48.628;8.924;2023-02-13T07:35:45;93.75;;;87.05;;
1140;SDS011;559;48.628;8.924;2023-02-13T07:38:12;100.72;;;93.03;;
1140;SDS011;559;48.628;8.924;2023-02-13T07:40:38;97.82;;;90.72;;
1140;SDS011;559;48.628;8.924;2023-02-13T07:43:05;101.47;;;94.55;;
1140;SDS011;559;48.628;8.924;2023-02-13T07:45:31;95.32;;;89.15;;
1140;SDS011;559;48.628;8.924;2023-02-13T07:47:58;95.82;;;89.05;;
1140;SDS011;559;48.628;8.924;2023-02-13T07:50:26;97.55;;;90.55;;
1140;SDS011;559;48.628;8.924;2023-02-13T07:52:53;99.68;;;92.10;;
1140;SDS011;559;48.628;8.924;2023-02-13T07:55:20;97.50;;;90.80;;
1140;SDS011;559;48.628;8.924;2023-02-13T07:57:46;95.05;;;88.00;;
1140;SDS011;559;48.628;8.924;2023-02-13T08:00:13;96.95;;;89.82;;
1140;SDS011;559;48.628;8.924;2023-02-13T08:02:41;91.47;;;85.38;;
1140;SDS011;559;48.628;8.924;2023-02-13T08:05:07;91.70;;;85.50;;
1140;SDS011;559;48.628;8.924;2023-02-13T08:07:35;91.32;;;85.03;;
1140;SDS011;559;48.628;8.924;2023-02-13T08:10:02;92.90;;;86.43;;
1140;SDS011;559;48.628;8.924;2023-02-13T08:12:46;89.80;;;84.18;;
1140;SDS011;559;48.628;8.924;2023-02-13T08:15:14;90.63;;;84.63;;
1140;SDS011;559;48.628;8.924;2023-02-13T08:17:40;88.13;;;81.70;;
1140;SDS011;559;48.628;8.924;2023-02-13T08:20:07;94.13;;;87.43;;
1140;SDS011;559;48.628;8.924;2023-02-13T08:22:36;104.38;;;97.00;;
1140;SDS011;559;48.628;8.924;2023-02-13T08:25:03;86.00;;;80.30;;
1140;SDS011;559;48.628;8.924;2023-02-13T08:27:30;85.43;;;79.68;;
1140;SDS011;559;48.628;8.924;2023-02-13T08:29:58;87.07;;;81.15;;
1140;SDS011;559;48.628;8.924;2023-02-13T08:32:25;82.63;;;77.03;;
1140;SDS011;559;48.628;8.924;2023-02-13T08:34:52;84.13;;;78.80;;
1140;SDS011;559;48.628;8.924;2023-02-13T08:37:18;78.18;;;73.10;;
1140;SDS011;559;48.628;8.924;2023-02-13T08:39:46;80.20;;;74.65;;
1140;SDS011;559;48.628;8.924;2023-02-13T08:42:12;75.78;;;70.50;;
1140;SDS011;559;48.628;8.924;2023-02-13T08:44:39;72.72;;;67.68;;
1140;SDS011;559;48.628;8.924;2023-02-13T08:47:06;72.93;;;68.30;;
1140;SDS011;559;48.628;8.924;2023-02-13T08:49:33;78.53;;;72.50;;
1140;SDS011;559;48.628;8.924;2023-02-13T08:52:00;73.45;;;68.40;;
1140;SDS011;559;48.628;8.924;2023-02-13T08:54:27;68.97;;;64.25;;
1140;SDS011;559;48.628;8.924;2023-02-13T08:56:55;68.80;;;64.70;;
1140;SDS011;559;48.628;8.924;2023-02-13T08:59:21;66.38;;;62.35;;
1140;SDS011;559;48.628;8.924;2023-02-13T09:01:48;67.88;;;63.78;;
1140;SDS011;559;48.628;8.924;2023-02-13T09:04:14;69.35;;;65.35;;
1140;SDS011;559;48.628;8.924;2023-02-13T09:06:42;70.60;;;66.47;;
1140;SDS011;559;48.628;8.924;2023-02-13T09:09:09;74.22;;;69.93;;
1140;SDS011;559;48.628;8.924;2023-02-13T09:11:36;78.78;;;74.13;;
1140;SDS011;559;48.628;8.924;2023-02-13T09:14:04;78.00;;;73.25;;
1140;SDS011;559;48.628;8.924;2023-02-13T09:16:30;81.57;;;76.82;;
1140;SDS011;559;48.628;8.924;2023-02-13T09:18:57;77.88;;;73.03;;
1140;SDS011;559;48.628;8.924;2023-02-13T09:21:23;80.78;;;75.88;;
1140;SDS011;559;48.628;8.924;2023-02-13T09:23:50;74.00;;;69.47;;
1140;SDS011;559;48.628;8.924;2023-02-13T09:26:17;74.57;;;69.88;;
1140;SDS011;559;48.628;8.924;2023-02-13T09:28:44;77.40;;;72.40;;
1140;SDS011;559;48.628;8.924;2023-02-13T09:31:12;82.38;;;76.97;;
1140;SDS011;559;48.628;8.924;2023-02-13T09:33:40;78.25;;;73.30;;
1140;SDS011;559;48.628;8.924;2023-02-13T09:36:08;97.47;;;88.97;;
1140;SDS011;559;48.628;8.924;2023-02-13T09:38:36;87.55;;;79.88;;
1140;SDS011;559;48.628;8.924;2023-02-13T09:41:04;78.72;;;73.05;;
1140;SDS011;559;48.628;8.924;2023-02-13T09:43:33;81.38;;;75.65;;
1140;SDS011;559;48.628;8.924;2023-02-13T09:46:04;82.55;;;76.97;;
1140;SDS011;559;48.628;8.924;2023-02-13T09:48:36;76.68;;;71.05;;
1140;SDS011;559;48.628;8.924;2023-02-13T09:51:04;74.35;;;69.30;;
1140;SDS011;559;48.628;8.924;2023-02-13T09:53:31;72.80;;;67.80;;
1140;SDS011;559;48.628;8.924;2023-02-13T09:56:03;73.32;;;68.00;;
1140;SDS011;559;48.628;8.924;2023-02-13T09:58:38;74.57;;;69.47;;
1140;SDS011;559;48.628;8.924;2023-02-13T10:01:15;71.50;;;66.45;;
1140;SDS011;559;48.628;8.924;2023-02-13T10:03:45;72.93;;;67.70;;
1140;SDS011;559;48.628;8.924;2023-02-13T10:06:14;70.68;;;65.93;;
1140;SDS011;559;48.628;8.924;2023-02-13T10:08:48;69.53;;;65.03;;
1140;SDS011;559;48.628;8.924;2023-02-13T10:11:27;67.55;;;62.90;;
1140;SDS011;559;48.628;8.924;2023-02-13T10:14:07;68.07;;;63.63;;
1140;SDS011;559;48.628;8.924;2023-02-13T10:16:39;69.88;;;64.97;;
1140;SDS011;559;48.628;8.924;2023-02-13T10:19:13;72.47;;;67.55;;
1140;SDS011;559;48.628;8.924;2023-02-13T10:21:54;72.75;;;67.95;;
1140;SDS011;559;48.628;8.924;2023-02-13T10:24:29;70.50;;;65.43;;
1140;SDS011;559;48.628;8.924;2023-02-13T10:26:58;71.57;;;65.97;;
1140;SDS011;559;48.628;8.924;2023-02-13T10:29:29;74.93;;;69.70;;
1140;SDS011;559;48.628;8.924;2023-02-13T10:32:21;70.18;;;65.47;;
1140;SDS011;559;48.628;8.924;2023-02-13T10:34:52;70.03;;;65.00;;
1140;SDS011;559;48.628;8.924;2023-02-13T10:37:20;71.55;;;66.78;;
1140;SDS011;559;48.628;8.924;2023-02-13T10:39:48;71.18;;;66.45;;
1140;SDS011;559;48.628;8.924;2023-02-13T10:42:19;71.60;;;66.30;;
1140;SDS011;559;48.628;8.924;2023-02-13T10:44:53;72.82;;;67.90;;
1140;SDS011;559;48.628;8.924;2023-02-13T10:47:28;76.72;;;71.45;;
1140;SDS011;559;48.628;8.924;2023-02-13T10:50:09;71.35;;;66.53;;
1140;SDS011;559;48.628;8.924;2023-02-13T10:52:43;70.53;;;65.68;;
1140;SDS011;559;48.628;8.924;2023-02-13T10:55:25;75.85;;;70.53;;
1140;SDS011;559;48.628;8.924;2023-02-13T10:58:14;71.63;;;66.80;;
1140;SDS011;559;48.628;8.924;2023-02-13T11:00:45;75.32;;;70.10;;
1140;SDS011;559;48.628;8.924;2023-02-13T11:03:17;74.78;;;69.57;;
1140;SDS011;559;48.628;8.924;2023-02-13T11:05:46;71.05;;;65.45;;
1140;SDS011;559;48.628;8.924;2023-02-13T11:08:15;72.82;;;67.82;;
1140;SDS011;559;48.628;8.924;2023-02-13T11:10:44;71.55;;;66.75;;
1140;SDS011;559;48.628;8.924;2023-02-13T11:13:14;72.53;;;67.53;;
1140;SDS011;559;48.628;8.924;2023-02-13T11:15:42;67.95;;;63.65;;
1140;SDS011;559;48.628;8.924;2023-02-13T11:18:22;72.53;;;67.68;;
1140;SDS011;559;48.628;8.924;2023-02-13T11:20:58;72.13;;;66.97;;
1140;SDS011;559;48.628;8.924;2023-02-13T11:23:33;68.40;;;63.35;;
1140;SDS011;559;48.628;8.924;2023-02-13T11:26:02;71.50;;;66.15;;
1140;SDS011;559;48.628;8.924;2023-02-13T11:28:33;71.15;;;65.95;;
1140;SDS011;559;48.628;8.924;2023-02-13T11:31:09;70.07;;;64.88;;
1140;SDS011;559;48.628;8.924;2023-02-13T11:33:38;69.40;;;64.15;;
1140;SDS011;559;48.628;8.924;2023-02-13T11:36:07;69.90;;;65.00;;
1140;SDS011;559;48.628;8.924;2023-02-13T11:38:35;69.75;;;64.95;;
1140;SDS011;559;48.628;8.924;2023-02-13T11:41:04;70.70;;;66.03;;
1140;SDS011;559;48.628;8.924;2023-02-13T11:43:33;70.60;;;65.53;;
1140;SDS011;559;48.628;8.924;2023-02-13T11:46:02;72.85;;;68.05;;
1140;SDS011;559;48.628;8.924;2023-02-13T11:48:30;71.90;;;67.00;;
1140;SDS011;559;48.628;8.924;2023-02-13T11:50:56;72.70;;;67.72;;
1140;SDS011;559;48.628;8.924;2023-02-13T11:53:26;82.70;;;77.10;;
1140;SDS011;559;48.628;8.924;2023-02-13T11:56:06;73.10;;;67.10;;
1140;SDS011;559;48.628;8.924;2023-02-13T11:58:35;69.32;;;64.65;;
1140;SDS011;559;48.628;8.924;2023-02-13T12:01:22;69.10;;;64.30;;
1140;SDS011;559;48.628;8.924;2023-02-13T12:03:56;74.07;;;69.32;;
1140;SDS011;559;48.628;8.924;2023-02-13T12:06:28;77.70;;;72.43;;
1140;SDS011;559;48.628;8.924;2023-02-13T12:08:56;74.63;;;69.63;;
1140;SDS011;559;48.628;8.924;2023-02-13T12:11:23;78.95;;;73.35;;
1140;SDS011;559;48.628;8.924;2023-02-13T12:13:58;77.55;;;72.07;;
1140;SDS011;559;48.628;8.924;2023-02-13T12:16:27;79.07;;;73.53;;
1140;SDS011;559;48.628;8.924;2023-02-13T12:18:58;75.35;;;69.90;;
1140;SDS011;559;48.628;8.924;2023-02-13T12:21:30;78.60;;;73.20;;
1140;SDS011;559;48.628;8.924;2023-02-13T12:24:10;80.03;;;74.78;;
1140;SDS011;559;48.628;8.924;2023-02-13T12:26:44;74.68;;;69.78;;
1140;SDS011;559;48.628;8.924;2023-02-13T12:32:10;72.40;;;67.20;;
1140;SDS011;559;48.628;8.924;2023-02-13T12:34:53;72.88;;;68.25;;
1140;SDS011;559;48.628;8.924;2023-02-13T12:37:50;71.20;;;66.53;;
1140;SDS011;559;48.628;8.924;2023-02-13T12:40:32;71.88;;;67.20;;
1140;SDS011;559;48.628;8.924;2023-02-13T12:43:32;72.75;;;67.75;;
1140;SDS011;559;48.628;8.924;2023-02-13T12:46:11;74.13;;;69.63;;
1140;SDS011;559;48.628;8.924;2023-02-13T12:48:43;72.00;;;67.20;;
1140;SDS011;559;48.628;8.924;2023-02-13T12:51:17;73.43;;;68.68;;
1140;SDS011;559;48.628;8.924;2023-02-13T12:53:59;69.43;;;64.93;;
1140;SDS011;559;48.628;8.924;2023-02-13T12:56:53;68.40;;;63.95;;
1140;SDS011;559;48.628;8.924;2023-02-13T12:59:28;72.70;;;67.80;;
1140;SDS011;559;48.628;8.924;2023-02-13T13:02:05;71.80;;;67.20;;
1140;SDS011;559;48.628;8.924;2023-02-13T13:04:49;69.55;;;64.88;;
1140;SDS011;559;48.628;8.924;2023-02-13T13:07:30;68.60;;;64.05;;
1140;SDS011;559;48.628;8.924;2023-02-13T13:10:18;66.68;;;62.05;;
1140;SDS011;559;48.628;8.924;2023-02-13T13:12:52;66.15;;;61.83;;
1140;SDS011;559;48.628;8.924;2023-02-13T13:15:25;66.85;;;62.80;;
1140;SDS011;559;48.628;8.924;2023-02-13T13:18:00;66.25;;;62.05;;
1140;SDS011;559;48.628;8.924;2023-02-13T13:20:40;63.30;;;59.30;;
1140;SDS011;559;48.628;8.924;2023-02-13T13:23:28;62.47;;;58.00;;
1140;SDS011;559;48.628;8.924;2023-02-13T13:25:59;62.63;;;58.47;;
1140;SDS011;559;48.628;8.924;2023-02-13T13:28:33;61.72;;;57.72;;
1140;SDS011;559;48.628;8.924;2023-02-13T13:31:01;63.42;;;59.08;;
1140;SDS011;559;48.628;8.924;2023-02-13T13:33:28;59.83;;;56.03;;
1140;SDS011;559;48.628;8.924;2023-02-13T13:35:57;59.97;;;56.10;;
1140;SDS011;559;48.628;8.924;2023-02-13T13:38:30;59.53;;;56.05;;
1140;SDS011;559;48.628;8.924;2023-02-13T13:41:04;62.35;;;57.45;;
1140;SDS011;559;48.628;8.924;2023-02-13T13:43:36;59.90;;;55.85;;
1140;SDS011;559;48.628;8.924;2023-02-13T13:46:13;60.58;;;56.90;;
1140;SDS011;559;48.628;8.924;2023-02-13T13:51:32;57.13;;;53.55;;
1140;SDS011;559;48.628;8.924;2023-02-13T13:54:17;56.00;;;52.40;;
1140;SDS011;559;48.628;8.924;2023-02-13T13:57:09;57.75;;;54.15;;
1140;SDS011;559;48.628;8.924;2023-02-13T13:59:55;57.97;;;54.28;;
1140;SDS011;559;48.628;8.924;2023-02-13T14:05:17;56.15;;;52.05;;
1140;SDS011;559;48.628;8.924;2023-02-13T14:07:46;55.67;;;52.13;;
1140;SDS011;559;48.628;8.924;2023-02-13T14:13:24;56.35;;;52.90;;
1140;SDS011;559;48.628;8.924;2023-02-13T14:15:55;57.17;;;53.63;;
1140;SDS011;559;48.628;8.924;2023-02-13T14:18:22;57.30;;;53.17;;
1140;SDS011;559;48.628;8.924;2023-02-13T14:20:50;55.95;;;52.58;;
1140;SDS011;559;48.628;8.924;2023-02-13T14:23:21;57.13;;;52.78;;
1140;SDS011;559;48.628;8.924;2023-02-13T14:28:55;54.10;;;50.78;;
1140;SDS011;559;48.628;8.924;2023-02-13T14:31:25;53.97;;;50.20;;
1140;SDS011;559;48.628;8.924;2023-02-13T14:33:54;50.78;;;47.80;;
1140;SDS011;559;48.628;8.924;2023-02-13T14:36:22;51.20;;;47.80;;
1140;SDS011;559;48.628;8.924;2023-02-13T14:38:53;48.20;;;45.65;;
1140;SDS011;559;48.628;8.924;2023-02-13T14:44:24;76.22;;;57.00;;
1140;SDS011;559;48.628;8.924;2023-02-13T14:46:56;47.33;;;44.88;;
1140;SDS011;559;48.628;8.924;2023-02-13T14:49:24;51.15;;;48.20;;
1140;SDS011;559;48.628;8.924;2023-02-13T14:51:53;50.47;;;47.78;;
1140;SDS011;559;48.628;8.924;2023-02-13T14:54:23;45.92;;;43.30;;
1140;SDS011;559;48.628;8.924;2023-02-13T14:56:52;45.30;;;42.83;;
1140;SDS011;559;48.628;8.924;2023-02-13T14:59:21;45.70;;;43.28;;
1140;SDS011;559;48.628;8.924;2023-02-13T15:01:49;45.13;;;42.42;;
1140;SDS011;559;48.628;8.924;2023-02-13T15:04:21;43.17;;;40.38;;
1140;SDS011;559;48.628;8.924;2023-02-13T15:06:51;41.10;;;38.80;;
1140;SDS011;559;48.628;8.924;2023-02-13T15:09:23;40.45;;;38.10;;
1140;SDS011;559;48.628;8.924;2023-02-13T15:11:53;38.08;;;35.63;;
1140;SDS011;559;48.628;8.924;2023-02-13T15:14:21;37.45;;;35.35;;
1140;SDS011;559;48.628;8.924;2023-02-13T15:16:51;37.42;;;35.13;;
1140;SDS011;559;48.628;8.924;2023-02-13T15:19:21;36.33;;;33.85;;
1140;SDS011;559;48.628;8.924;2023-02-13T15:21:50;29.20;;;27.30;;
1140;SDS011;559;48.628;8.924;2023-02-13T15:24:18;21.80;;;20.23;;
1140;SDS011;559;48.628;8.924;2023-02-13T15:26:48;22.77;;;20.88;;
1140;SDS011;559;48.628;8.924;2023-02-13T15:29:17;23.15;;;20.90;;
1140;SDS011;559;48.628;8.924;2023-02-13T15:31:44;21.98;;;20.45;;
1140;SDS011;559;48.628;8.924;2023-02-13T15:34:18;19.63;;;18.05;;
1140;SDS011;559;48.628;8.924;2023-02-13T15:36:47;18.40;;;16.58;;